Latest Weather Observations for Tibooburra Airport

IDN60801

Issued at 7:02 pm EDT Friday 24 March 2017 (issued every 30 minutes, with the page automatically refreshed every 10 minutes)

About weather observations | Map of weather stations | Latest weather observations for NSW | Other Formats
Station Details ID: 046126 Name: TIBOOBURRA AIRPORT Lat: -29.44 Lon: 142.06 Height: 176.4 m
Data from the previous 72 hours. | See also: Recent months at Tibooburra Airport
Date/Time
EDT
Temp
°C
App
Temp
°C
Dew
Point
°C
Rel
Hum
%
Delta-T
°C
Wind Press
QNH
hPa
Press
MSL
hPa
Rain since
9am
mm
Dir  Spd
km/h
Gust
km/h
Spd
kts
Gust
kts
24/06:30pm 38.9 35.8 5.5 13 18.5 NNW 11 19 6 10 1008.8 1007.9 0.0
24/06:00pm 39.1 37.0 5.7 13 18.6 NW 6 13 3 7 1008.7 1007.8 0.0
24/05:30pm 39.0 35.5 5.6 13 18.5 NW 13 20 7 11 1008.7 1007.8 0.0
24/05:00pm 38.5 35.9 4.1 12 18.7 WNW 7 20 4 11 1008.7 1007.8 0.0
24/04:30pm 39.2 35.1 4.6 12 18.9 WNW 15 26 8 14 1008.7 1007.8 0.0
24/04:00pm 39.7 37.1 6.1 13 18.9 WNW 9 17 5 9 1008.9 1008.0 0.0
24/03:30pm 39.1 37.6 6.7 14 18.3 NE 4 13 2 7 1009.1 1008.2 0.0
24/03:00pm 39.3 36.3 5.8 13 18.7 N 11 28 6 15 1009.6 1008.7 0.0
24/02:30pm 38.8 36.8 8.5 16 17.5 WNW 9 22 5 12 1010.1 1009.2 0.0
24/02:00pm 38.6 35.0 8.3 16 17.5 NNW 17 30 9 16 1010.7 1009.7 0.0
24/01:30pm 36.8 33.3 10.2 20 15.7 NW 19 28 10 15 1011.3 1010.3 0.0
24/01:00pm 36.7 34.3 11.5 22 15.1 NNW 15 22 8 12 1011.8 1010.8 0.0
24/12:30pm 35.6 33.3 11.9 24 14.2 NNW 15 26 8 14 1012.4 1011.4 0.0
24/12:00pm 34.7 32.0 11.8 25 13.7 N 17 24 9 13 1012.7 1011.7 0.0
24/11:30am 33.8 31.5 10.4 24 13.6 NNE 13 20 7 11 1012.9 1011.9 0.0
24/11:00am 32.3 31.1 10.4 26 12.7 NE 7 17 4 9 1013.0 1012.0 0.0
24/10:30am 31.0 29.5 10.4 28 11.9 E 9 15 5 8 1013.1 1012.1 0.0
24/10:00am 29.6 27.4 10.7 31 10.9 ESE 13 17 7 9 1013.0 1012.0 0.0
24/09:30am 28.0 25.4 10.7 34 9.9 SE 15 19 8 10 1012.8 1011.8 0.0
24/09:00am 26.6 24.5 11.1 38 8.8 SSE 13 17 7 9 1012.6 1011.6 0.0
24/08:30am 24.5 22.7 10.8 42 7.7 SSW 11 13 6 7 1012.4 1011.4 0.0
24/08:00am 22.9 20.9 10.3 45 7.0 SSW 11 13 6 7 1012.1 1011.1 0.0
24/07:30am 23.1 20.8 10.5 45 7.0 SSW 13 13 7 7 1012.0 1011.0 0.0
24/07:00am 22.9 20.9 10.0 44 7.1 SW 11 13 6 7 1011.9 1010.9 0.0
24/06:30am 23.4 21.7 9.8 42 7.5 SSW 9 13 5 7 1011.4 1010.4 0.0
24/06:00am 24.2 22.5 9.8 40 8.0 SSW 9 11 5 6 1011.1 1010.1 0.0
24/05:30am 24.4 22.3 9.6 39 8.1 S 11 15 6 8 1011.0 1010.0 0.0
24/05:00am 24.1 22.7 9.7 40 7.9 SSE 7 9 4 5 1011.0 1010.0 0.0
24/04:30am 24.0 22.0 8.8 38 8.2 S 9 11 5 6 1011.2 1010.2 0.0
24/04:00am 24.8 22.8 8.7 36 8.7 S 9 11 5 6 1011.5 1010.5 0.0
24/03:30am 25.6 23.7 9.0 35 9.1 SSE 9 11 5 6 1011.8 1010.8 0.0
24/03:00am 26.0 23.8 9.4 35 9.2 SSE 11 13 6 7 1011.8 1010.8 0.0
24/02:30am 26.1 23.8 9.0 34 9.4 S 11 13 6 7 1011.8 1010.8 0.0
24/02:00am 25.8 24.0 7.9 32 9.6 SSW 7 9 4 5 1011.7 1010.7 0.0
24/01:30am 26.3 23.7 7.8 31 10.0 SSW 11 13 6 7 1011.9 1010.9 0.0
24/01:00am 26.6 24.0 7.6 30 10.2 SSW 11 13 6 7 1011.9 1010.9 0.0
24/12:30am 26.7 24.0 7.2 29 10.4 SSW 11 13 6 7 1012.0 1011.0 0.0
24/12:00am 27.7 24.5 7.0 27 11.1 S 13 15 7 8 1012.1 1011.1 0.0
 
Date/Time
EDT
Temp
°C
App
Temp
°C
Dew
Point
°C
Rel
Hum
%
Delta-T
°C
Wind Press
QNH
hPa
Press
MSL
hPa
Rain since
9am
mm
Dir  Spd
km/h
Gust
km/h
Spd
kts
Gust
kts
23/11:30pm 28.5 25.2 6.6 25 11.7 S 13 15 7 8 1012.3 1011.3 0.0
23/11:00pm 29.0 25.6 5.8 23 12.3 S 13 15 7 8 1012.3 1011.3 0.0
23/10:30pm 29.1 25.5 5.2 22 12.5 S 13 15 7 8 1012.3 1011.3 0.0
23/10:00pm 29.9 26.3 5.2 21 13.0 S 13 15 7 8 1012.0 1011.0 0.0
23/09:30pm 30.8 26.7 4.5 19 13.7 S 15 17 8 9 1011.7 1010.7 0.0
23/09:00pm 31.1 27.7 4.0 18 14.1 SSW 11 15 6 8 1011.4 1010.4 0.0
23/08:30pm 32.3 28.4 3.3 16 15.0 S 13 15 7 8 1011.0 1010.0 0.0
23/08:00pm 33.1 29.5 3.0 15 15.6 SSW 11 13 6 7 1010.7 1009.7 0.0
23/07:30pm 34.6 31.3 2.2 13 16.7 S 9 13 5 7 1010.4 1009.4 0.0
23/07:00pm 35.9 32.7 -0.5 10 18.1 WSW 6 13 3 7 1010.2 1009.3 0.0
23/06:30pm 36.3 33.9 -0.2 10 18.3 SSW 2 13 1 7 1010.1 1009.2 0.0
23/06:00pm 36.3 32.6 -0.2 10 18.3 WSW 9 17 5 9 1010.2 1009.3 0.0
23/05:30pm 36.6 32.2 0.1 10 18.4 W 13 22 7 12 1010.2 1009.3 0.0
23/05:00pm 36.0 32.6 2.1 12 17.6 S 9 17 5 9 1010.5 1009.5 0.0
23/04:30pm 35.8 32.8 2.0 12 17.5 NNW 7 15 4 8 1010.6 1009.6 0.0
23/04:00pm 36.0 32.5 3.3 13 17.3 SW 11 19 6 10 1010.8 1009.8 0.0
23/03:30pm 35.7 31.4 5.1 15 16.6 SSW 17 26 9 14 1011.2 1010.2 0.0
23/03:00pm 36.2 33.7 6.4 16 16.5 WSW 9 24 5 13 1011.4 1010.4 0.0
23/02:30pm 34.9 31.6 6.2 17 15.8 WNW 13 20 7 11 1011.8 1010.8 0.0
23/02:00pm 34.5 32.2 7.5 19 15.1 SSW 9 20 5 11 1012.2 1011.2 0.0
23/01:30pm 34.9 33.8 8.6 20 15.0 ESE 4 13 2 7 1012.7 1011.7 0.0
23/01:00pm 33.6 32.6 10.2 24 13.6 NNE 6 11 3 6 1013.1 1012.1 0.0
23/12:30pm 32.4 31.7 12.1 29 12.1 SW 7 13 4 7 1013.4 1012.5 0.0
23/12:00pm 31.2 30.8 12.5 31 11.1 S 6 11 3 6 1013.9 1013.0 0.0
23/11:30am 30.0 29.1 13.7 37 9.8 SE 11 15 6 8 1014.1 1013.2 0.0
23/11:00am 29.0 28.2 15.2 43 8.5 SSE 13 22 7 12 1014.1 1013.2 0.0
23/10:30am 27.9 26.4 15.2 46 7.8 SSE 17 20 9 11 1014.2 1013.3 0.0
23/10:00am 26.8 25.4 15.5 50 6.9 SSE 17 22 9 12 1014.1 1013.2 0.0
23/09:30am 26.3 25.1 16.0 53 6.4 S 17 22 9 12 1013.9 1013.0 0.0
23/09:00am 24.5 23.8 15.4 57 5.5 SW 13 15 7 8 1013.4 1012.5 0.0
23/08:30am 23.2 23.2 15.3 61 4.8 SW 9 13 5 7 1013.3 1012.4 0.0
23/08:00am 21.8 21.2 14.7 64 4.2 SW 11 13 6 7 1012.9 1011.9 0.0
23/07:30am 21.6 21.0 14.5 64 4.2 SW 11 13 6 7 1012.6 1011.6 0.0
23/07:00am 22.0 21.7 14.4 62 4.5 SW 9 9 5 5 1012.3 1011.3 0.0
23/06:30am 23.1 22.6 14.9 60 4.9 SSW 11 13 6 7 1011.7 1010.7 0.0
23/06:00am 23.8 23.3 15.0 57 5.3 S 11 15 6 8 1011.4 1010.4 0.0
23/05:30am 24.3 23.1 15.0 56 5.6 S 15 20 8 11 1011.2 1010.2 0.0
23/05:00am 24.6 23.4 15.0 55 5.8 S 15 20 8 11 1011.2 1010.2 0.0
23/04:30am 24.7 22.9 14.5 53 6.1 S 17 22 9 12 1011.2 1010.2 0.0
23/04:00am 25.2 22.8 14.3 50 6.5 S 20 24 11 13 1011.2 1010.2 0.0
23/03:30am 24.9 22.3 13.1 48 6.9 S 19 24 10 13 1011.3 1010.3 0.0
23/03:00am 24.4 21.6 11.4 44 7.4 SW 17 19 9 10 1011.4 1010.4 0.0
23/02:30am 24.6 22.1 11.2 43 7.6 SW 15 17 8 9 1011.9 1010.9 0.0
23/02:00am 24.7 22.3 10.2 40 8.1 SW 13 13 7 7 1012.1 1011.1 0.0
23/01:30am 25.6 23.6 10.2 38 8.6 SW 11 13 6 7 1012.4 1011.4 0.0
23/01:00am 26.2 23.8 10.0 36 9.1 WSW 13 17 7 9 1012.3 1011.3 0.0
23/12:30am 26.6 24.2 9.9 35 9.3 WSW 13 17 7 9 1012.5 1011.5 0.0
23/12:00am 27.6 23.3 9.4 32 10.1 SW 22 28 12 15 1012.4 1011.4 0.0
 
Date/Time
EDT
Temp
°C
App
Temp
°C
Dew
Point
°C
Rel
Hum
%
Delta-T
°C
Wind Press
QNH
hPa
Press
MSL
hPa
Rain since
9am
mm
Dir  Spd
km/h
Gust
km/h
Spd
kts
Gust
kts
22/11:30pm 28.2 23.4 7.4 27 11.2 SW 22 32 12 17 1012.3 1011.3 0.0
22/11:00pm 28.1 23.1 3.7 21 12.4 WSW 19 22 10 12 1012.0 1011.0 0.0
22/10:30pm 28.5 23.1 2.7 19 12.9 WSW 20 24 11 13 1011.8 1010.8 0.0
22/10:00pm 29.5 24.2 1.9 17 13.7 WSW 19 20 10 11 1011.6 1010.6 0.0
22/09:30pm 30.0 25.0 1.5 16 14.1 WSW 17 20 9 11 1011.2 1010.2 0.0
22/09:00pm 31.0 25.6 1.4 15 14.7 WSW 19 24 10 13 1010.8 1009.8 0.0
22/08:30pm 32.0 26.7 2.1 15 15.1 SW 19 22 10 12 1010.2 1009.3 0.0
22/08:00pm 32.9 27.0 1.9 14 15.7 SW 22 30 12 16 1009.9 1009.0 0.0
22/07:30pm 34.1 27.8 1.8 13 16.5 WSW 24 32 13 17 1009.6 1008.7 0.0
22/07:00pm 35.5 29.0 0.6 11 17.6 WSW 24 30 13 16 1009.4 1008.5 0.0
22/06:30pm 36.4 29.5 -0.1 10 18.3 WSW 26 37 14 20 1009.3 1008.4 0.0
22/06:00pm 37.0 29.4 0.4 10 18.6 WSW 30 37 16 20 1009.1 1008.2 0.0
22/05:30pm 37.4 31.0 0.7 10 18.7 W 24 30 13 16 1009.1 1008.2 0.0
22/05:00pm 37.8 31.9 -0.5 9 19.3 W 20 32 11 17 1009.2 1008.3 0.0
22/04:30pm 38.1 32.8 -0.3 9 19.4 W 17 32 9 17 1009.4 1008.5 0.0
22/04:00pm 37.6 32.5 0.8 10 18.9 W 17 26 9 14 1009.7 1008.8 0.0
22/03:30pm 37.5 31.4 0.7 10 18.8 W 22 33 12 18 1009.9 1009.0 0.0
22/03:00pm 37.1 31.0 0.4 10 18.6 W 22 37 12 20 1010.4 1009.4 0.0
22/02:30pm 36.4 31.2 2.5 12 17.7 W 19 33 10 18 1010.7 1009.7 0.0
22/02:00pm 36.7 31.5 3.8 13 17.6 WSW 20 32 11 17 1011.0 1010.0 0.0
22/01:30pm 36.4 32.7 4.6 14 17.2 WSW 13 22 7 12 1011.3 1010.3 0.0
22/01:00pm 35.6 32.4 5.0 15 16.6 WNW 11 20 6 11 1011.8 1010.8 0.0
22/12:30pm 35.3 33.6 5.7 16 16.2 NW 4 13 2 7 1012.2 1011.2 0.0
22/12:00pm 35.0 33.8 6.3 17 15.8 E 2 7 1 4 1012.5 1011.5 0.0
22/11:30am 33.6 31.5 6.8 19 14.8 SSW 7 13 4 7 1012.7 1011.7 0.0
22/11:00am 33.0 30.8 7.8 21 14.1 S 9 15 5 8 1012.8 1011.8 0.0
22/10:30am 31.4 28.3 7.1 22 13.3 SSW 13 17 7 9 1013.0 1012.0 0.0
22/10:00am 30.0 26.9 7.2 24 12.4 SW 13 19 7 10 1012.9 1011.9 0.0
22/09:30am 28.9 25.9 7.5 26 11.6 SSW 13 17 7 9 1012.8 1011.8 0.0
22/09:00am 27.1 24.1 7.5 29 10.6 SW 13 17 7 9 1012.5 1011.5 0.0
22/08:30am 25.3 22.4 8.3 34 9.2 SW 13 17 7 9 1012.5 1011.5 0.0
22/08:00am 24.5 21.2 8.0 35 8.8 WSW 15 17 8 9 1012.3 1011.3 0.0
22/07:30am 24.7 21.4 8.2 35 8.9 WSW 15 19 8 10 1012.0 1011.0 0.0
22/07:00am 24.8 22.2 7.9 34 9.1 SW 11 15 6 8 1011.4 1010.4 0.0
22/06:30am 25.8 22.6 8.3 33 9.5 WSW 15 19 8 10 1011.1 1010.1 0.0
22/06:00am 26.2 23.2 7.7 31 10.0 SW 13 17 7 9 1010.6 1009.6 0.0
22/05:30am 27.0 24.0 7.5 29 10.5 SW 13 17 7 9 1010.6 1009.6 0.0
22/05:00am 27.9 24.0 7.2 27 11.1 SW 17 22 9 12 1010.6 1009.6 0.0
22/04:30am 28.6 24.3 7.8 27 11.3 SW 20 30 11 16 1010.4 1009.4 0.0
22/04:00am 27.8 25.5 9.1 31 10.4 W 11 13 6 7 1010.5 1009.5 0.0
22/03:30am 28.8 25.9 9.5 30 10.8 WNW 15 17 8 9 1010.5 1009.5 0.0
22/03:00am 29.5 27.0 9.6 29 11.2 NW 13 19 7 10 1010.6 1009.6 0.0
22/02:30am 28.7 26.4 8.9 29 11.0 NW 11 11 6 6 1010.5 1009.5 0.0
22/02:00am 29.2 26.6 9.3 29 11.2 N 13 13 7 7 1010.4 1009.4 0.0
22/01:30am 30.0 28.1 9.0 27 11.8 N 9 13 5 7 1010.5 1009.5 0.0
22/01:00am 30.4 27.8 9.3 27 11.9 N 13 17 7 9 1010.6 1009.6 0.0
22/12:30am 30.1 28.2 9.1 27 11.8 NNE 9 11 5 6 1011.0 1010.0 0.0
22/12:00am 30.9 29.3 8.6 25 12.5 N 7 7 4 4 1011.1 1010.1 0.0
 
Date/Time
EDT
Temp
°C
App
Temp
°C
Dew
Point
°C
Rel
Hum
%
Delta-T
°C
Wind Press
QNH
hPa
Press
MSL
hPa
Rain since
9am
mm
Dir  Spd
km/h
Gust
km/h
Spd
kts
Gust
kts
21/11:30pm 31.3 29.4 8.9 25 12.6 NNE 9 11 5 6 1011.0 1010.0 0.0
21/11:00pm 31.6 29.6 8.6 24 12.9 NE 9 9 5 5 1010.8 1009.8 0.0
21/10:30pm 31.9 30.3 8.2 23 13.2 ENE 6 7 3 4 1010.7 1009.7 0.0
21/10:00pm 32.1 30.3 7.0 21 13.8 ESE 6 7 3 4 1010.5 1009.5 0.0
21/09:30pm 32.8 31.1 7.6 21 14.0 SSE 6 7 3 4 1010.0 1009.1 0.0
21/09:00pm 33.1 31.7 7.1 20 14.4 SSW 4 7 2 4 1009.6 1008.7 0.0
21/08:30pm 34.1 31.7 7.2 19 14.9 S 9 11 5 6 1009.1 1008.2 0.0
21/08:00pm 35.0 31.9 7.1 18 15.6 SSW 13 19 7 10 1008.8 1007.9 0.0
21/07:30pm 35.9 32.4 7.0 17 16.1 SSW 15 20 8 11 1008.6 1007.7 0.0

Other Formats:

Comma delimited format used in spreadsheet applications
http://www.bom.gov.au/fwo/IDN60801/IDN60801.95485.axf

JavaScript Object Notation format (JSON) in row-major order
http://www.bom.gov.au/fwo/IDN60801/IDN60801.95485.json